Terminal Aerodrome Forecast
Issued by NWS

Current Version | Previous Version | Text Only | Print | Product List | Glossary On
Versions: 1 2 3 4 5 6 7 8 9 10 11 12 13 14 15
840
FTUS44 KTSA 262337
TAFBVO
TAF
KBVO 262337Z 2700/2724 12007KT P6SM VCTS SCT030CB BKN060 BKN250
     FM270200 14003KT P6SM SCT070 BKN150
     FM271200 VRB03KT P6SM SCT025 BKN250
     FM271600 16007KT P6SM SCT040 SCT250=

USA.gov is the U.S. government's official web portal to all federal, state and local government web resources and services.